sensor_id;sensor_type;location;lat;lon;timestamp;P1;durP1;ratioP1;P2;durP2;ratioP2
57309;SDS011;43153;50.984;18.204;2023-08-06T00:01:22;13.30;;;8.10;;
57309;SDS011;43153;50.984;18.204;2023-08-06T00:03:52;16.90;;;8.40;;
57309;SDS011;43153;50.984;18.204;2023-08-06T00:06:25;12.50;;;7.30;;
57309;SDS011;43153;50.984;18.204;2023-08-06T00:08:52;14.30;;;8.70;;
57309;SDS011;43153;50.984;18.204;2023-08-06T00:11:21;14.00;;;8.90;;
57309;SDS011;43153;50.984;18.204;2023-08-06T00:13:52;13.60;;;8.30;;
57309;SDS011;43153;50.984;18.204;2023-08-06T00:16:19;17.20;;;9.30;;
57309;SDS011;43153;50.984;18.204;2023-08-06T00:18:46;13.30;;;8.40;;
57309;SDS011;43153;50.984;18.204;2023-08-06T00:21:13;13.50;;;8.60;;
57309;SDS011;43153;50.984;18.204;2023-08-06T00:23:39;14.20;;;9.40;;
57309;SDS011;43153;50.984;18.204;2023-08-06T00:26:08;15.10;;;9.30;;
57309;SDS011;43153;50.984;18.204;2023-08-06T00:28:36;13.70;;;8.20;;
57309;SDS011;43153;50.984;18.204;2023-08-06T00:31:06;16.80;;;9.20;;
57309;SDS011;43153;50.984;18.204;2023-08-06T00:33:32;15.20;;;9.60;;
57309;SDS011;43153;50.984;18.204;2023-08-06T00:36:03;16.40;;;8.60;;
57309;SDS011;43153;50.984;18.204;2023-08-06T00:38:29;15.10;;;10.20;;
57309;SDS011;43153;50.984;18.204;2023-08-06T00:40:55;15.80;;;9.50;;
57309;SDS011;43153;50.984;18.204;2023-08-06T00:43:23;18.20;;;10.20;;
57309;SDS011;43153;50.984;18.204;2023-08-06T00:46:00;17.10;;;10.10;;
57309;SDS011;43153;50.984;18.204;2023-08-06T00:48:32;17.20;;;10.00;;
57309;SDS011;43153;50.984;18.204;2023-08-06T00:50:59;18.20;;;11.50;;
57309;SDS011;43153;50.984;18.204;2023-08-06T00:53:28;19.50;;;11.80;;
57309;SDS011;43153;50.984;18.204;2023-08-06T00:55:56;15.10;;;9.90;;
57309;SDS011;43153;50.984;18.204;2023-08-06T00:58:28;17.00;;;10.30;;
57309;SDS011;43153;50.984;18.204;2023-08-06T01:00:55;20.30;;;11.00;;
57309;SDS011;43153;50.984;18.204;2023-08-06T01:03:25;18.70;;;11.30;;
57309;SDS011;43153;50.984;18.204;2023-08-06T01:05:52;19.30;;;12.10;;
57309;SDS011;43153;50.984;18.204;2023-08-06T01:11:38;20.50;;;12.80;;
57309;SDS011;43153;50.984;18.204;2023-08-06T01:14:26;21.60;;;14.00;;
57309;SDS011;43153;50.984;18.204;2023-08-06T01:17:17;23.70;;;13.80;;
57309;SDS011;43153;50.984;18.204;2023-08-06T01:19:51;25.60;;;15.00;;
57309;SDS011;43153;50.984;18.204;2023-08-06T01:22:20;24.50;;;14.80;;
57309;SDS011;43153;50.984;18.204;2023-08-06T01:24:49;24.70;;;14.50;;
57309;SDS011;43153;50.984;18.204;2023-08-06T01:27:22;25.90;;;15.30;;
57309;SDS011;43153;50.984;18.204;2023-08-06T01:30:16;27.40;;;15.20;;
57309;SDS011;43153;50.984;18.204;2023-08-06T01:32:50;25.20;;;16.10;;
57309;SDS011;43153;50.984;18.204;2023-08-06T01:35:23;27.70;;;16.10;;
57309;SDS011;43153;50.984;18.204;2023-08-06T01:38:12;26.40;;;15.10;;
57309;SDS011;43153;50.984;18.204;2023-08-06T01:40:39;30.20;;;17.70;;
57309;SDS011;43153;50.984;18.204;2023-08-06T01:43:09;30.10;;;16.50;;
57309;SDS011;43153;50.984;18.204;2023-08-06T01:45:37;30.20;;;17.20;;
57309;SDS011;43153;50.984;18.204;2023-08-06T01:48:06;25.40;;;15.30;;
57309;SDS011;43153;50.984;18.204;2023-08-06T01:50:40;28.10;;;17.20;;
57309;SDS011;43153;50.984;18.204;2023-08-06T01:53:08;26.90;;;16.60;;
57309;SDS011;43153;50.984;18.204;2023-08-06T01:55:34;28.00;;;16.50;;
57309;SDS011;43153;50.984;18.204;2023-08-06T01:58:00;27.80;;;16.60;;
57309;SDS011;43153;50.984;18.204;2023-08-06T02:00:31;26.80;;;17.30;;
57309;SDS011;43153;50.984;18.204;2023-08-06T02:02:59;25.00;;;17.10;;
57309;SDS011;43153;50.984;18.204;2023-08-06T02:05:27;31.40;;;19.20;;
57309;SDS011;43153;50.984;18.204;2023-08-06T02:07:53;29.00;;;18.80;;
57309;SDS011;43153;50.984;18.204;2023-08-06T02:10:20;28.40;;;17.70;;
57309;SDS011;43153;50.984;18.204;2023-08-06T02:12:48;34.60;;;19.80;;
57309;SDS011;43153;50.984;18.204;2023-08-06T02:15:23;32.40;;;18.20;;
57309;SDS011;43153;50.984;18.204;2023-08-06T02:18:16;39.10;;;19.50;;
57309;SDS011;43153;50.984;18.204;2023-08-06T02:20:56;27.90;;;17.80;;
57309;SDS011;43153;50.984;18.204;2023-08-06T02:23:30;39.20;;;18.00;;
57309;SDS011;43153;50.984;18.204;2023-08-06T02:26:02;29.70;;;17.80;;
57309;SDS011;43153;50.984;18.204;2023-08-06T02:28:31;33.40;;;17.60;;
57309;SDS011;43153;50.984;18.204;2023-08-06T02:30:59;30.80;;;18.20;;
57309;SDS011;43153;50.984;18.204;2023-08-06T02:33:26;31.30;;;18.30;;
57309;SDS011;43153;50.984;18.204;2023-08-06T02:36:02;29.60;;;16.60;;
57309;SDS011;43153;50.984;18.204;2023-08-06T02:38:31;32.70;;;18.30;;
57309;SDS011;43153;50.984;18.204;2023-08-06T02:40:58;35.70;;;18.30;;
57309;SDS011;43153;50.984;18.204;2023-08-06T02:43:30;34.30;;;18.40;;
57309;SDS011;43153;50.984;18.204;2023-08-06T02:46:03;28.00;;;17.70;;
57309;SDS011;43153;50.984;18.204;2023-08-06T02:48:31;27.70;;;16.70;;
57309;SDS011;43153;50.984;18.204;2023-08-06T02:50:59;29.80;;;18.00;;
57309;SDS011;43153;50.984;18.204;2023-08-06T02:53:31;27.50;;;17.20;;
57309;SDS011;43153;50.984;18.204;2023-08-06T02:56:03;28.50;;;18.00;;
57309;SDS011;43153;50.984;18.204;2023-08-06T02:58:41;38.00;;;18.90;;
57309;SDS011;43153;50.984;18.204;2023-08-06T03:01:10;41.20;;;20.70;;
57309;SDS011;43153;50.984;18.204;2023-08-06T03:03:38;32.10;;;17.30;;
57309;SDS011;43153;50.984;18.204;2023-08-06T03:06:11;35.40;;;18.50;;
57309;SDS011;43153;50.984;18.204;2023-08-06T03:08:38;37.20;;;19.60;;
57309;SDS011;43153;50.984;18.204;2023-08-06T03:11:14;31.90;;;18.90;;
57309;SDS011;43153;50.984;18.204;2023-08-06T03:13:51;30.70;;;19.00;;
57309;SDS011;43153;50.984;18.204;2023-08-06T03:16:27;34.00;;;18.20;;
57309;SDS011;43153;50.984;18.204;2023-08-06T03:18:57;31.10;;;19.30;;
57309;SDS011;43153;50.984;18.204;2023-08-06T03:21:26;33.50;;;19.30;;
57309;SDS011;43153;50.984;18.204;2023-08-06T03:23:58;30.40;;;18.50;;
57309;SDS011;43153;50.984;18.204;2023-08-06T03:26:26;34.50;;;19.00;;
57309;SDS011;43153;50.984;18.204;2023-08-06T03:28:53;33.90;;;19.80;;
57309;SDS011;43153;50.984;18.204;2023-08-06T03:31:23;35.20;;;17.90;;
57309;SDS011;43153;50.984;18.204;2023-08-06T03:33:53;31.90;;;18.20;;
57309;SDS011;43153;50.984;18.204;2023-08-06T03:36:19;29.50;;;17.40;;
57309;SDS011;43153;50.984;18.204;2023-08-06T03:38:47;35.10;;;18.90;;
57309;SDS011;43153;50.984;18.204;2023-08-06T03:41:15;36.30;;;20.50;;
57309;SDS011;43153;50.984;18.204;2023-08-06T03:43:43;34.90;;;20.30;;
57309;SDS011;43153;50.984;18.204;2023-08-06T03:46:11;29.20;;;18.40;;
57309;SDS011;43153;50.984;18.204;2023-08-06T03:48:40;29.20;;;18.10;;
57309;SDS011;43153;50.984;18.204;2023-08-06T03:51:08;28.60;;;19.50;;
57309;SDS011;43153;50.984;18.204;2023-08-06T03:53:34;29.80;;;17.50;;
57309;SDS011;43153;50.984;18.204;2023-08-06T03:56:00;32.80;;;19.00;;
57309;SDS011;43153;50.984;18.204;2023-08-06T03:58:44;33.60;;;17.70;;
57309;SDS011;43153;50.984;18.204;2023-08-06T04:01:11;28.80;;;18.30;;
57309;SDS011;43153;50.984;18.204;2023-08-06T04:06:10;28.10;;;17.50;;
57309;SDS011;43153;50.984;18.204;2023-08-06T04:08:43;27.50;;;17.30;;
57309;SDS011;43153;50.984;18.204;2023-08-06T04:11:13;27.70;;;17.70;;
57309;SDS011;43153;50.984;18.204;2023-08-06T04:13:44;28.20;;;16.60;;
57309;SDS011;43153;50.984;18.204;2023-08-06T04:16:20;27.60;;;17.40;;
57309;SDS011;43153;50.984;18.204;2023-08-06T04:18:49;29.10;;;17.60;;
57309;SDS011;43153;50.984;18.204;2023-08-06T04:21:17;30.70;;;18.90;;
57309;SDS011;43153;50.984;18.204;2023-08-06T04:23:45;26.60;;;16.60;;
57309;SDS011;43153;50.984;18.204;2023-08-06T04:26:19;27.60;;;17.40;;
57309;SDS011;43153;50.984;18.204;2023-08-06T04:28:51;29.00;;;18.40;;
57309;SDS011;43153;50.984;18.204;2023-08-06T04:31:23;29.00;;;19.40;;
57309;SDS011;43153;50.984;18.204;2023-08-06T04:33:52;33.90;;;19.00;;
57309;SDS011;43153;50.984;18.204;2023-08-06T04:36:20;34.50;;;19.60;;
57309;SDS011;43153;50.984;18.204;2023-08-06T04:38:49;26.80;;;17.80;;
57309;SDS011;43153;50.984;18.204;2023-08-06T04:41:18;27.30;;;17.60;;
57309;SDS011;43153;50.984;18.204;2023-08-06T04:43:48;30.50;;;18.30;;
57309;SDS011;43153;50.984;18.204;2023-08-06T04:46:14;21.90;;;14.60;;
57309;SDS011;43153;50.984;18.204;2023-08-06T04:48:47;27.20;;;16.90;;
57309;SDS011;43153;50.984;18.204;2023-08-06T04:51:14;26.10;;;16.10;;
57309;SDS011;43153;50.984;18.204;2023-08-06T04:53:45;24.00;;;14.70;;
57309;SDS011;43153;50.984;18.204;2023-08-06T04:56:14;23.50;;;14.90;;
57309;SDS011;43153;50.984;18.204;2023-08-06T04:58:42;28.10;;;15.20;;
57309;SDS011;43153;50.984;18.204;2023-08-06T05:01:10;23.20;;;14.90;;
57309;SDS011;43153;50.984;18.204;2023-08-06T05:03:42;23.40;;;14.70;;
57309;SDS011;43153;50.984;18.204;2023-08-06T05:06:08;24.40;;;15.00;;
57309;SDS011;43153;50.984;18.204;2023-08-06T05:08:37;29.50;;;15.70;;
57309;SDS011;43153;50.984;18.204;2023-08-06T05:11:07;25.60;;;14.70;;
57309;SDS011;43153;50.984;18.204;2023-08-06T05:13:33;26.50;;;14.20;;
57309;SDS011;43153;50.984;18.204;2023-08-06T05:16:04;23.90;;;14.40;;
57309;SDS011;43153;50.984;18.204;2023-08-06T05:18:31;21.90;;;12.60;;
57309;SDS011;43153;50.984;18.204;2023-08-06T05:21:03;21.00;;;13.80;;
57309;SDS011;43153;50.984;18.204;2023-08-06T05:23:32;20.70;;;13.20;;
57309;SDS011;43153;50.984;18.204;2023-08-06T05:26:12;21.80;;;12.80;;
57309;SDS011;43153;50.984;18.204;2023-08-06T05:28:44;23.60;;;13.60;;
57309;SDS011;43153;50.984;18.204;2023-08-06T05:31:13;22.30;;;13.30;;
57309;SDS011;43153;50.984;18.204;2023-08-06T05:33:42;19.70;;;12.80;;
57309;SDS011;43153;50.984;18.204;2023-08-06T05:36:18;22.20;;;13.20;;
57309;SDS011;43153;50.984;18.204;2023-08-06T05:38:49;23.30;;;15.00;;
57309;SDS011;43153;50.984;18.204;2023-08-06T05:41:26;22.50;;;12.40;;
57309;SDS011;43153;50.984;18.204;2023-08-06T05:43:52;24.90;;;13.70;;
57309;SDS011;43153;50.984;18.204;2023-08-06T05:46:21;20.70;;;13.80;;
57309;SDS011;43153;50.984;18.204;2023-08-06T05:48:50;24.70;;;14.00;;
57309;SDS011;43153;50.984;18.204;2023-08-06T05:51:19;25.00;;;14.90;;
57309;SDS011;43153;50.984;18.204;2023-08-06T05:53:51;21.50;;;12.50;;
57309;SDS011;43153;50.984;18.204;2023-08-06T05:56:26;21.30;;;13.40;;
57309;SDS011;43153;50.984;18.204;2023-08-06T05:58:55;20.20;;;11.90;;
57309;SDS011;43153;50.984;18.204;2023-08-06T06:01:24;19.50;;;11.90;;
57309;SDS011;43153;50.984;18.204;2023-08-06T06:03:59;21.00;;;13.40;;
57309;SDS011;43153;50.984;18.204;2023-08-06T06:06:30;21.30;;;12.00;;
57309;SDS011;43153;50.984;18.204;2023-08-06T06:09:00;21.00;;;12.20;;
57309;SDS011;43153;50.984;18.204;2023-08-06T06:11:35;20.20;;;10.20;;
57309;SDS011;43153;50.984;18.204;2023-08-06T06:14:04;16.80;;;9.00;;
57309;SDS011;43153;50.984;18.204;2023-08-06T06:16:34;17.70;;;9.90;;
57309;SDS011;43153;50.984;18.204;2023-08-06T06:19:04;15.60;;;8.80;;
57309;SDS011;43153;50.984;18.204;2023-08-06T06:21:32;14.80;;;7.70;;
57309;SDS011;43153;50.984;18.204;2023-08-06T06:24:02;14.60;;;8.70;;
57309;SDS011;43153;50.984;18.204;2023-08-06T06:26:30;10.60;;;6.70;;
57309;SDS011;43153;50.984;18.204;2023-08-06T06:28:59;9.90;;;5.50;;
57309;SDS011;43153;50.984;18.204;2023-08-06T06:31:25;7.70;;;3.40;;
57309;SDS011;43153;50.984;18.204;2023-08-06T06:33:55;5.70;;;2.50;;
57309;SDS011;43153;50.984;18.204;2023-08-06T06:36:27;6.00;;;2.00;;
57309;SDS011;43153;50.984;18.204;2023-08-06T06:38:58;4.00;;;1.30;;
57309;SDS011;43153;50.984;18.204;2023-08-06T06:41:30;4.20;;;1.20;;
57309;SDS011;43153;50.984;18.204;2023-08-06T06:44:00;3.30;;;0.90;;
57309;SDS011;43153;50.984;18.204;2023-08-06T06:46:29;2.60;;;0.70;;
57309;SDS011;43153;50.984;18.204;2023-08-06T06:48:59;2.70;;;0.70;;
57309;SDS011;43153;50.984;18.204;2023-08-06T06:51:35;5.70;;;0.60;;
57309;SDS011;43153;50.984;18.204;2023-08-06T06:54:04;1.50;;;0.50;;
57309;SDS011;43153;50.984;18.204;2023-08-06T06:56:31;1.70;;;0.40;;
57309;SDS011;43153;50.984;18.204;2023-08-06T06:58:57;2.40;;;0.30;;
57309;SDS011;43153;50.984;18.204;2023-08-06T07:01:32;4.40;;;0.40;;
57309;SDS011;43153;50.984;18.204;2023-08-06T07:04:00;0.30;;;0.20;;
57309;SDS011;43153;50.984;18.204;2023-08-06T07:06:31;1.50;;;0.20;;
57309;SDS011;43153;50.984;18.204;2023-08-06T07:09:01;3.50;;;0.50;;
57309;SDS011;43153;50.984;18.204;2023-08-06T07:11:29;1.10;;;0.20;;
57309;SDS011;43153;50.984;18.204;2023-08-06T07:14:15;1.50;;;0.40;;
57309;SDS011;43153;50.984;18.204;2023-08-06T07:16:52;1.60;;;0.10;;
57309;SDS011;43153;50.984;18.204;2023-08-06T07:19:19;0.40;;;0.00;;
57309;SDS011;43153;50.984;18.204;2023-08-06T07:21:48;0.80;;;0.10;;
57309;SDS011;43153;50.984;18.204;2023-08-06T07:24:19;0.70;;;0.10;;
57309;SDS011;43153;50.984;18.204;2023-08-06T07:26:48;2.10;;;0.10;;
57309;SDS011;43153;50.984;18.204;2023-08-06T07:29:17;2.50;;;0.20;;
57309;SDS011;43153;50.984;18.204;2023-08-06T07:31:48;0.10;;;0.10;;
57309;SDS011;43153;50.984;18.204;2023-08-06T07:34:15;2.10;;;0.00;;
57309;SDS011;43153;50.984;18.204;2023-08-06T07:36:45;0.60;;;0.10;;
57309;SDS011;43153;50.984;18.204;2023-08-06T07:39:14;3.70;;;0.60;;
57309;SDS011;43153;50.984;18.204;2023-08-06T07:41:54;2.20;;;0.20;;
57309;SDS011;43153;50.984;18.204;2023-08-06T07:44:20;0.70;;;0.20;;
57309;SDS011;43153;50.984;18.204;2023-08-06T07:46:50;1.40;;;0.10;;
57309;SDS011;43153;50.984;18.204;2023-08-06T07:49:19;0.40;;;0.10;;
57309;SDS011;43153;50.984;18.204;2023-08-06T07:51:48;2.60;;;0.40;;
57309;SDS011;43153;50.984;18.204;2023-08-06T07:54:21;2.10;;;0.20;;
57309;SDS011;43153;50.984;18.204;2023-08-06T07:59:16;0.10;;;0.00;;
57309;SDS011;43153;50.984;18.204;2023-08-06T08:01:45;1.20;;;0.20;;
57309;SDS011;43153;50.984;18.204;2023-08-06T08:04:12;0.50;;;0.10;;
57309;SDS011;43153;50.984;18.204;2023-08-06T08:06:43;2.40;;;0.10;;
57309;SDS011;43153;50.984;18.204;2023-08-06T08:09:12;0.40;;;0.00;;
57309;SDS011;43153;50.984;18.204;2023-08-06T08:11:44;1.20;;;0.10;;
57309;SDS011;43153;50.984;18.204;2023-08-06T08:14:11;0.10;;;0.10;;
57309;SDS011;43153;50.984;18.204;2023-08-06T08:16:38;0.70;;;0.00;;
57309;SDS011;43153;50.984;18.204;2023-08-06T08:19:07;1.00;;;0.00;;
57309;SDS011;43153;50.984;18.204;2023-08-06T08:21:37;0.90;;;0.10;;
57309;SDS011;43153;50.984;18.204;2023-08-06T08:24:06;0.40;;;0.20;;
57309;SDS011;43153;50.984;18.204;2023-08-06T08:26:35;1.30;;;0.00;;
57309;SDS011;43153;50.984;18.204;2023-08-06T08:29:09;0.40;;;0.20;;
57309;SDS011;43153;50.984;18.204;2023-08-06T08:31:40;0.70;;;0.10;;
57309;SDS011;43153;50.984;18.204;2023-08-06T08:34:17;0.60;;;0.20;;
57309;SDS011;43153;50.984;18.204;2023-08-06T08:36:45;1.40;;;0.20;;
57309;SDS011;43153;50.984;18.204;2023-08-06T08:39:17;0.40;;;0.10;;
57309;SDS011;43153;50.984;18.204;2023-08-06T08:41:50;0.00;;;0.00;;
57309;SDS011;43153;50.984;18.204;2023-08-06T08:44:19;1.00;;;0.20;;
57309;SDS011;43153;50.984;18.204;2023-08-06T08:46:45;1.10;;;0.30;;
57309;SDS011;43153;50.984;18.204;2023-08-06T08:49:15;3.40;;;0.40;;
57309;SDS011;43153;50.984;18.204;2023-08-06T08:51:43;0.80;;;0.20;;
57309;SDS011;43153;50.984;18.204;2023-08-06T08:54:15;1.60;;;0.20;;
57309;SDS011;43153;50.984;18.204;2023-08-06T08:56:43;2.50;;;0.40;;
57309;SDS011;43153;50.984;18.204;2023-08-06T08:59:11;1.30;;;0.30;;
57309;SDS011;43153;50.984;18.204;2023-08-06T09:01:41;2.00;;;0.20;;
57309;SDS011;43153;50.984;18.204;2023-08-06T09:04:14;0.90;;;0.20;;
57309;SDS011;43153;50.984;18.204;2023-08-06T09:06:42;1.50;;;0.20;;
57309;SDS011;43153;50.984;18.204;2023-08-06T09:11:44;0.60;;;0.10;;
57309;SDS011;43153;50.984;18.204;2023-08-06T09:14:13;0.50;;;0.20;;
57309;SDS011;43153;50.984;18.204;2023-08-06T09:16:49;1.00;;;0.20;;
57309;SDS011;43153;50.984;18.204;2023-08-06T09:19:16;0.90;;;0.20;;
57309;SDS011;43153;50.984;18.204;2023-08-06T09:21:46;1.00;;;0.20;;
57309;SDS011;43153;50.984;18.204;2023-08-06T09:24:17;1.10;;;0.20;;
57309;SDS011;43153;50.984;18.204;2023-08-06T09:26:43;0.70;;;0.20;;
57309;SDS011;43153;50.984;18.204;2023-08-06T09:29:10;0.30;;;0.10;;
57309;SDS011;43153;50.984;18.204;2023-08-06T09:34:45;1.80;;;0.20;;
57309;SDS011;43153;50.984;18.204;2023-08-06T09:37:19;2.60;;;0.20;;
57309;SDS011;43153;50.984;18.204;2023-08-06T09:39:47;1.00;;;0.40;;
57309;SDS011;43153;50.984;18.204;2023-08-06T09:42:14;0.40;;;0.10;;
57309;SDS011;43153;50.984;18.204;2023-08-06T10:25:44;9.70;;;1.10;;
57309;SDS011;43153;50.984;18.204;2023-08-06T10:28:41;2.10;;;0.20;;
57309;SDS011;43153;50.984;18.204;2023-08-06T10:31:07;0.50;;;0.40;;
57309;SDS011;43153;50.984;18.204;2023-08-06T10:33:44;1.10;;;0.30;;
57309;SDS011;43153;50.984;18.204;2023-08-06T10:36:14;1.70;;;0.40;;
57309;SDS011;43153;50.984;18.204;2023-08-06T10:38:45;0.50;;;0.30;;
57309;SDS011;43153;50.984;18.204;2023-08-06T10:41:28;0.70;;;0.30;;
57309;SDS011;43153;50.984;18.204;2023-08-06T10:44:09;0.40;;;0.10;;
57309;SDS011;43153;50.984;18.204;2023-08-06T10:46:36;1.10;;;0.20;;
57309;SDS011;43153;50.984;18.204;2023-08-06T10:49:03;0.50;;;0.10;;
57309;SDS011;43153;50.984;18.204;2023-08-06T10:51:37;0.60;;;0.10;;
57309;SDS011;43153;50.984;18.204;2023-08-06T10:54:13;1.80;;;0.60;;
57309;SDS011;43153;50.984;18.204;2023-08-06T10:56:40;2.20;;;0.30;;
57309;SDS011;43153;50.984;18.204;2023-08-06T10:59:14;2.90;;;0.40;;
57309;SDS011;43153;50.984;18.204;2023-08-06T11:01:40;0.60;;;0.20;;
57309;SDS011;43153;50.984;18.204;2023-08-06T11:04:10;3.80;;;0.20;;
57309;SDS011;43153;50.984;18.204;2023-08-06T11:06:44;2.40;;;0.50;;
57309;SDS011;43153;50.984;18.204;2023-08-06T11:09:19;1.30;;;0.40;;
57309;SDS011;43153;50.984;18.204;2023-08-06T11:11:52;2.80;;;0.60;;
57309;SDS011;43153;50.984;18.204;2023-08-06T11:14:18;1.60;;;0.40;;
57309;SDS011;43153;50.984;18.204;2023-08-06T11:16:50;8.70;;;0.70;;
57309;SDS011;43153;50.984;18.204;2023-08-06T11:19:18;0.80;;;0.20;;
57309;SDS011;43153;50.984;18.204;2023-08-06T11:21:51;1.00;;;0.50;;
57309;SDS011;43153;50.984;18.204;2023-08-06T11:24:24;2.30;;;0.20;;
57309;SDS011;43153;50.984;18.204;2023-08-06T11:26:52;0.80;;;0.30;;
57309;SDS011;43153;50.984;18.204;2023-08-06T11:31:52;1.10;;;0.40;;
57309;SDS011;43153;50.984;18.204;2023-08-06T11:34:18;1.40;;;0.60;;
57309;SDS011;43153;50.984;18.204;2023-08-06T11:36:44;1.10;;;0.40;;
57309;SDS011;43153;50.984;18.204;2023-08-06T11:39:12;2.40;;;0.80;;
57309;SDS011;43153;50.984;18.204;2023-08-06T11:41:39;5.30;;;1.30;;
57309;SDS011;43153;50.984;18.204;2023-08-06T11:44:12;3.00;;;0.90;;
57309;SDS011;43153;50.984;18.204;2023-08-06T11:46:49;2.00;;;0.70;;
57309;SDS011;43153;50.984;18.204;2023-08-06T11:49:18;3.30;;;1.00;;
57309;SDS011;43153;50.984;18.204;2023-08-06T11:51:49;3.00;;;1.10;;
57309;SDS011;43153;50.984;18.204;2023-08-06T11:54:16;3.20;;;1.00;;
57309;SDS011;43153;50.984;18.204;2023-08-06T11:56:45;4.00;;;0.90;;
57309;SDS011;43153;50.984;18.204;2023-08-06T11:59:12;5.20;;;0.90;;
57309;SDS011;43153;50.984;18.204;2023-08-06T12:01:43;1.80;;;0.70;;
57309;SDS011;43153;50.984;18.204;2023-08-06T12:04:12;3.00;;;0.80;;
57309;SDS011;43153;50.984;18.204;2023-08-06T12:06:42;1.80;;;0.60;;
57309;SDS011;43153;50.984;18.204;2023-08-06T12:09:11;2.70;;;0.80;;
57309;SDS011;43153;50.984;18.204;2023-08-06T12:11:40;2.70;;;1.00;;
57309;SDS011;43153;50.984;18.204;2023-08-06T12:14:09;4.70;;;1.50;;
57309;SDS011;43153;50.984;18.204;2023-08-06T12:16:38;5.70;;;2.50;;
57309;SDS011;43153;50.984;18.204;2023-08-06T12:19:05;5.30;;;2.10;;
57309;SDS011;43153;50.984;18.204;2023-08-06T12:21:32;4.60;;;1.90;;
57309;SDS011;43153;50.984;18.204;2023-08-06T12:24:01;7.40;;;2.60;;
57309;SDS011;43153;50.984;18.204;2023-08-06T12:26:27;3.90;;;1.90;;
57309;SDS011;43153;50.984;18.204;2023-08-06T12:28:53;4.80;;;1.60;;
57309;SDS011;43153;50.984;18.204;2023-08-06T12:31:20;5.30;;;2.20;;
57309;SDS011;43153;50.984;18.204;2023-08-06T12:33:53;7.40;;;3.30;;
57309;SDS011;43153;50.984;18.204;2023-08-06T12:36:23;6.70;;;2.80;;
57309;SDS011;43153;50.984;18.204;2023-08-06T12:39:02;6.80;;;2.90;;
57309;SDS011;43153;50.984;18.204;2023-08-06T12:41:30;7.00;;;3.20;;
57309;SDS011;43153;50.984;18.204;2023-08-06T12:43:59;7.40;;;3.30;;
57309;SDS011;43153;50.984;18.204;2023-08-06T12:46:36;6.90;;;2.60;;
57309;SDS011;43153;50.984;18.204;2023-08-06T12:49:05;6.80;;;3.30;;
57309;SDS011;43153;50.984;18.204;2023-08-06T12:51:32;6.40;;;2.60;;
57309;SDS011;43153;50.984;18.204;2023-08-06T12:54:04;4.20;;;1.40;;
57309;SDS011;43153;50.984;18.204;2023-08-06T12:56:32;9.20;;;3.40;;
57309;SDS011;43153;50.984;18.204;2023-08-06T12:58:58;8.40;;;3.00;;
57309;SDS011;43153;50.984;18.204;2023-08-06T13:01:32;7.00;;;2.80;;
57309;SDS011;43153;50.984;18.204;2023-08-06T13:04:02;4.80;;;2.20;;
57309;SDS011;43153;50.984;18.204;2023-08-06T13:06:28;8.00;;;3.00;;
57309;SDS011;43153;50.984;18.204;2023-08-06T13:09:07;5.20;;;1.80;;
57309;SDS011;43153;50.984;18.204;2023-08-06T13:11:46;4.10;;;1.70;;
57309;SDS011;43153;50.984;18.204;2023-08-06T13:14:15;5.40;;;1.90;;
57309;SDS011;43153;50.984;18.204;2023-08-06T13:16:56;4.40;;;2.30;;
57309;SDS011;43153;50.984;18.204;2023-08-06T13:19:27;5.20;;;1.80;;
57309;SDS011;43153;50.984;18.204;2023-08-06T13:22:06;4.00;;;1.70;;
57309;SDS011;43153;50.984;18.204;2023-08-06T13:24:37;3.80;;;1.40;;
57309;SDS011;43153;50.984;18.204;2023-08-06T13:27:05;3.20;;;1.50;;
57309;SDS011;43153;50.984;18.204;2023-08-06T13:29:32;3.80;;;1.50;;
57309;SDS011;43153;50.984;18.204;2023-08-06T13:32:01;1.70;;;0.60;;
57309;SDS011;43153;50.984;18.204;2023-08-06T13:34:26;2.20;;;0.80;;
57309;SDS011;43153;50.984;18.204;2023-08-06T13:37:03;3.40;;;1.10;;
57309;SDS011;43153;50.984;18.204;2023-08-06T13:39:30;2.50;;;0.70;;
57309;SDS011;43153;50.984;18.204;2023-08-06T13:41:56;3.10;;;0.90;;
57309;SDS011;43153;50.984;18.204;2023-08-06T13:44:24;2.60;;;1.20;;
57309;SDS011;43153;50.984;18.204;2023-08-06T13:46:52;3.10;;;1.20;;
57309;SDS011;43153;50.984;18.204;2023-08-06T13:49:26;2.20;;;0.60;;
57309;SDS011;43153;50.984;18.204;2023-08-06T13:51:52;4.50;;;0.90;;
57309;SDS011;43153;50.984;18.204;2023-08-06T13:54:20;2.80;;;0.90;;
57309;SDS011;43153;50.984;18.204;2023-08-06T13:56:51;1.70;;;0.60;;
57309;SDS011;43153;50.984;18.204;2023-08-06T13:59:22;2.10;;;0.50;;
57309;SDS011;43153;50.984;18.204;2023-08-06T14:01:50;2.70;;;1.10;;
57309;SDS011;43153;50.984;18.204;2023-08-06T14:04:18;3.90;;;1.10;;
57309;SDS011;43153;50.984;18.204;2023-08-06T14:06:46;1.80;;;0.70;;
57309;SDS011;43153;50.984;18.204;2023-08-06T14:09:16;2.10;;;0.50;;
57309;SDS011;43153;50.984;18.204;2023-08-06T14:11:48;1.80;;;0.60;;
57309;SDS011;43153;50.984;18.204;2023-08-06T14:14:22;3.90;;;0.80;;
57309;SDS011;43153;50.984;18.204;2023-08-06T14:16:54;3.80;;;1.50;;
57309;SDS011;43153;50.984;18.204;2023-08-06T14:19:26;1.30;;;0.50;;
57309;SDS011;43153;50.984;18.204;2023-08-06T14:21:53;2.30;;;0.50;;
57309;SDS011;43153;50.984;18.204;2023-08-06T14:24:20;1.20;;;0.60;;
57309;SDS011;43153;50.984;18.204;2023-08-06T14:26:58;1.50;;;0.30;;
57309;SDS011;43153;50.984;18.204;2023-08-06T14:29:29;1.20;;;0.50;;
57309;SDS011;43153;50.984;18.204;2023-08-06T14:31:57;2.20;;;0.60;;
57309;SDS011;43153;50.984;18.204;2023-08-06T14:34:23;4.50;;;0.60;;
57309;SDS011;43153;50.984;18.204;2023-08-06T14:39:24;4.60;;;0.70;;
57309;SDS011;43153;50.984;18.204;2023-08-06T14:41:52;0.60;;;0.30;;
57309;SDS011;43153;50.984;18.204;2023-08-06T14:44:23;1.50;;;0.50;;
57309;SDS011;43153;50.984;18.204;2023-08-06T14:46:51;1.80;;;0.70;;
57309;SDS011;43153;50.984;18.204;2023-08-06T14:49:20;3.30;;;0.90;;
57309;SDS011;43153;50.984;18.204;2023-08-06T14:51:50;2.90;;;1.20;;
57309;SDS011;43153;50.984;18.204;2023-08-06T14:54:20;3.80;;;1.20;;
57309;SDS011;43153;50.984;18.204;2023-08-06T14:56:48;2.80;;;1.00;;
57309;SDS011;43153;50.984;18.204;2023-08-06T14:59:18;2.40;;;1.00;;
57309;SDS011;43153;50.984;18.204;2023-08-06T15:01:53;2.80;;;1.30;;
57309;SDS011;43153;50.984;18.204;2023-08-06T15:04:22;2.10;;;0.70;;
57309;SDS011;43153;50.984;18.204;2023-08-06T15:06:53;3.40;;;1.40;;
57309;SDS011;43153;50.984;18.204;2023-08-06T15:09:24;1.80;;;0.60;;
57309;SDS011;43153;50.984;18.204;2023-08-06T15:11:54;2.90;;;1.00;;
57309;SDS011;43153;50.984;18.204;2023-08-06T15:14:26;1.90;;;1.00;;
57309;SDS011;43153;50.984;18.204;2023-08-06T15:16:58;2.80;;;1.10;;
57309;SDS011;43153;50.984;18.204;2023-08-06T15:19:33;2.30;;;1.00;;
57309;SDS011;43153;50.984;18.204;2023-08-06T15:22:05;2.40;;;0.90;;
57309;SDS011;43153;50.984;18.204;2023-08-06T15:24:31;1.40;;;0.60;;
57309;SDS011;43153;50.984;18.204;2023-08-06T15:26:58;3.10;;;1.10;;
57309;SDS011;43153;50.984;18.204;2023-08-06T15:29:25;2.40;;;0.90;;
57309;SDS011;43153;50.984;18.204;2023-08-06T15:31:53;9.00;;;1.10;;
57309;SDS011;43153;50.984;18.204;2023-08-06T15:34:21;2.70;;;1.40;;
57309;SDS011;43153;50.984;18.204;2023-08-06T15:36:47;2.10;;;0.90;;
57309;SDS011;43153;50.984;18.204;2023-08-06T15:39:14;2.90;;;1.00;;
57309;SDS011;43153;50.984;18.204;2023-08-06T15:41:58;3.20;;;1.20;;